• Join FlightAware (Why Join?)
  • Login
  • US Flag 
05:44PM EDT


 

Airport Tracker/Info


-or-


 

Live Flight TrackerFlight Track Log ✈ UAL4680 ✈ 11-May-2013 ✈ MMPR / PVR - KIAH

Flight Track Log - Related Links

Times and Time Zones

All times are in EDT time to prevent confusion due to time zone crossing. See the UAL4680 flight status page for this flight to view local times or setup timezone preferences in your user account.

Time Position Orientation Groundspeed Altitude Reporting Facility
EDT Latitude Longitude Course Direction KTS MPH feet Rate Location/Type
02:26PM 25.6303 -100.6289 74° East 551 634 37,000  Level Houston Center
02:27PM 25.6731 -100.4653 74° East 553 636 37,000  Level Houston Center
02:28PM 25.7172 -100.3039 73° East 553 636 37,000  Level Houston Center
02:29PM 25.7647 -100.1456 72° East 551 634 37,000  Level Houston Center
02:30PM 25.8539 -100.0072 54° Northeast 556 640 37,000  Level Houston Center
02:31PM 25.9569 -99.8825 47° Northeast 553 636 37,000  Level Houston Center
02:32PM 26.0817 -99.7303 48° Northeast 554 638 37,000  Level Houston Center
02:33PM 26.1839 -99.6028 48° Northeast 554 638 37,000  Level Houston Center
02:34PM 26.2881 -99.4767 47° Northeast 554 638 37,000  Level Houston Center
02:35PM 26.4006 -99.3597 43° Northeast 555 639 37,000  Level Houston Center
02:36PM 26.5156 -99.2475 41° Northeast 553 636 37,000  Level Houston Center
02:37PM 26.6303 -99.1358 41° Northeast 550 633 37,000  Level Houston Center
02:38PM 26.7656 -99.0031 41° Northeast 543 625 37,000  Level Houston Center
02:39PM 26.8772 -98.8925 41° Northeast 539 620 37,000  Level Houston Center
02:40PM 26.9883 -98.7825 41° Northeast 537 618 37,000  Level Houston Center
02:41PM 27.0981 -98.6728 42° Northeast 535 616 37,000  Level Houston Center
02:42PM 27.2086 -98.5628 41° Northeast 536 617 37,000  Level Houston Center
02:43PM 27.3200 -98.4522 41° Northeast 538 619 37,000  Level Houston Center
02:44PM 27.4531 -98.3183 42° Northeast 539 620 37,000  Level Houston Center
02:45PM 27.5642 -98.2067 42° Northeast 538 619 37,000  Level Houston Center
02:47PM 27.6753 -98.0947 42° Northeast 537 618 37,000  Level Houston Center
02:48PM 27.7875 -97.9814 42° Northeast 542 624 37,000  Level Houston Center
02:49PM 27.8997 -97.8675 42° Northeast 543 625 37,000  Level Houston Center
02:50PM 28.0308 -97.7378 41° Northeast 542 624 37,000  Level Houston Center
02:51PM 28.1425 -97.6225 42° Northeast 543 625 37,000  Level Houston Center
02:52PM 28.2550 -97.5097 41° Northeast 541 623 37,000  Level Houston Center
02:53PM 28.3667 -97.3953 42° Northeast 541 623 37,000 -60 Level Houston Center
02:54PM 28.4778 -97.2800 42° Northeast 543 625 36,900 -960 Descending Houston Center
02:55PM 28.5906 -97.1644 42° Northeast 544 626 35,100 -2,640 Descending Houston Center
02:56PM 28.7222 -97.0308 42° Northeast 533 613 31,500 -3,300 Descending Houston Center
02:57PM 28.8308 -96.9161 43° Northeast 534 615 28,400 -2,940 Descending Houston Center
02:58PM 28.9397 -96.8028 42° Northeast 534 615 25,500 -2,760 Descending Houston Center
02:59PM 29.0439 -96.6939 42° Northeast 514 592 22,800 -2,640 Descending Houston Center
03:00PM 29.1408 -96.5917 43° Northeast 489 563 20,200 -2,520 Descending Houston Center
03:01PM 29.2356 -96.4933 42° Northeast 471 542 17,700 -2,640 Descending Houston Center
03:02PM 29.3378 -96.3864 42° Northeast 427 491 14,800 -2,760 Descending Houston Center
03:03PM 29.4175 -96.3036 42° Northeast 397 457 12,100 -2,400 Descending Houston Center
03:04PM 29.4903 -96.2250 43° Northeast 371 427 10,000 -1,020 Descending Houston Center
03:05PM 29.5550 -96.1503 45° Northeast 339 390 10,000 -60 Level Houston Center
03:06PM 29.5994 -96.0569 61° Northeast 334 384 9,900 -60 Descending Houston Center
03:07PM 29.6664 -95.9811 45° Northeast 331 381 9,900 -540 Level Houston Center
03:08PM 29.7331 -95.9339 32° Northeast 285 328 8,900 -1,260 Descending Houston Center
03:09PM 29.7919 -95.8811 38° Northeast 271 312 7,400 -960 Descending Houston Center
03:10PM 29.8461 -95.8344 37° Northeast 251 289 7,000 -480 Descending Houston Center
03:11PM 29.8892 -95.7836 46° Northeast 239 275 6,500 -1,140 Descending Houston Center
03:12PM 29.9211 -95.7039 65° Northeast 230 265 4,800 -1,380 Descending Houston Center
03:13PM 29.9469 -95.6394 65° Northeast 224 258 3,700 -840 Descending Houston Center
03:14PM 29.9753 -95.5614 67° East 213 245 3,000 -480 Descending Houston Center
03:15PM 29.9939 -95.5175 64° Northeast 210 242 2,800 -720 Descending Houston Center
03:16PM 29.9922 -95.4483 92° East 169 194 1,600 -900 Descending Houston Center
03:17PM 29.9947 -95.4117 85° East 171 197 1,000 -660 Descending Houston Center
03:18PM 29.9933 -95.3681 92° East 154 177 400 -600 Descending Houston Center
03:20PM 29.9833 -95.3333 49° Northeast  Level FlightAware Approximate
03:27PM 29.9844 -95.3414 49° Northeast  Level Estimated